Time;durP1;ratioP1;P1;durP2;ratioP2;P2;SDS_P1;SDS_P2;PMS_P1;PMS_P2;Temp;Humidity;BMP_temperature;BMP_pressure;BME280_temperature;BME280_humidity;BME280_pressure;Samples;Min_cycle;Max_cycle;Signal;HPM_P1;HPM_P2
2022/05/28 00:00:17;;;;;;;;;;;19.40;67.60;;;;;;5071567;28;1491;-76
2022/05/28 00:02:43;;;;;;;;;;;19.40;67.60;;;;;;5041153;28;1452;-74
2022/05/28 00:05:08;;;;;;;;;;;19.40;67.60;;;;;;5041406;28;1299;-75
2022/05/28 00:07:33;;;;;;;;;;;19.40;67.60;;;;;;5057917;28;1067;-75
2022/05/28 00:09:59;;;;;;;;;;;19.40;67.60;;;;;;5075314;28;1901;-75
2022/05/28 00:12:25;;;;;;;;;;;19.40;67.60;;;;;;5040927;28;1166;-76
2022/05/28 00:14:50;;;;;;;;;;;19.40;67.60;;;;;;5057564;28;1194;-75
2022/05/28 00:17:16;;;;;;;;;;;19.40;67.60;;;;;;5041054;28;1277;-76
2022/05/28 00:19:41;;;;;;;;;;;19.40;67.60;;;;;;5075609;28;1354;-75
2022/05/28 00:22:07;;;;;;;;;;;19.40;67.60;;;;;;5041130;28;1344;-74
2022/05/28 00:24:32;;;;;;;;;;;19.40;67.60;;;;;;5075462;28;1103;-75
2022/05/28 00:26:58;;;;;;;;;;;19.40;67.60;;;;;;5075541;28;1063;-75
2022/05/28 00:29:23;;;;;;;;;;;19.40;67.60;;;;;;5040653;28;1879;-74
2022/05/28 00:31:49;;;;;;;;;;;19.40;68.40;;;;;;5075148;28;1107;-75
2022/05/28 00:34:14;;;;;;;;;;;19.40;67.60;;;;;;5073285;28;1456;-75
2022/05/28 00:36:40;;;;;;;;;;;19.40;67.70;;;;;;5075180;28;1226;-75
2022/05/28 00:39:06;;;;;;;;;;;19.40;67.60;;;;;;5075629;28;1264;-75
2022/05/28 00:41:32;;;;;;;;;;;19.40;67.60;;;;;;5056793;28;1478;-75
2022/05/28 00:43:58;;;;;;;;;;;19.40;67.60;;;;;;5075102;28;1447;-75
2022/05/28 00:46:24;;;;;;;;;;;19.40;67.60;;;;;;5075328;28;1380;-75
2022/05/28 00:48:50;;;;;;;;;;;19.40;67.60;;;;;;5057048;28;1898;-76
2022/05/28 00:51:20;;;;;;;;;;;19.40;67.60;;;;;;5056744;28;1303;-75
2022/05/28 00:53:46;;;;;;;;;;;19.40;67.60;;;;;;5057004;28;1399;-75
2022/05/28 00:56:11;;;;;;;;;;;19.40;67.60;;;;;;5075013;28;1274;-76
2022/05/28 00:58:37;;;;;;;;;;;19.40;67.60;;;;;;5075020;28;1055;-75
2022/05/28 01:01:03;;;;;;;;;;;19.40;67.60;;;;;;5056570;28;1193;-75
2022/05/28 01:03:41;;;;;;;;;;;19.40;67.60;;;;;;5056930;28;1280;-74
2022/05/28 01:06:06;;;;;;;;;;;19.40;67.60;;;;;;5049026;28;1277;-74
2022/05/28 01:08:34;;;;;;;;;;;19.40;67.60;;;;;;5069362;28;1360;-76
2022/05/28 01:11:09;;;;;;;;;;;19.40;67.60;;;;;;5056112;28;1910;-76
2022/05/28 01:13:43;;;;;;;;;;;19.40;67.60;;;;;;5074457;28;1248;-76
2022/05/28 01:16:15;;;;;;;;;;;19.40;67.60;;;;;;5056851;28;1090;-75
2022/05/28 01:18:51;;;;;;;;;;;19.40;67.70;;;;;;5055815;28;1871;-75
2022/05/28 01:21:22;;;;;;;;;;;19.40;67.60;;;;;;5054946;28;1880;-75
2022/05/28 01:23:55;;;;;;;;;;;19.40;67.70;;;;;;5055114;28;1826;-75
2022/05/28 01:26:44;;;;;;;;;;;19.40;67.60;;;;;;5055086;28;1849;-74
2022/05/28 01:29:10;;;;;;;;;;;19.40;67.60;;;;;;5060184;28;1897;-76
2022/05/28 01:31:36;;;;;;;;;;;19.40;67.70;;;;;;5055409;28;1208;-73
2022/05/28 01:34:02;;;;;;;;;;;19.40;67.60;;;;;;5056073;28;1377;-75
2022/05/28 01:36:28;;;;;;;;;;;19.40;67.60;;;;;;5055990;28;1283;-75
2022/05/28 01:38:54;;;;;;;;;;;19.40;67.60;;;;;;5056021;28;1270;-74
2022/05/28 01:41:20;;;;;;;;;;;19.40;67.60;;;;;;5053358;28;1826;-76
2022/05/28 01:43:46;;;;;;;;;;;19.40;67.60;;;;;;5056060;28;1334;-76
2022/05/28 01:46:11;;;;;;;;;;;19.40;67.60;;;;;;5056322;28;1163;-77
2022/05/28 01:48:37;;;;;;;;;;;19.40;67.60;;;;;;5055605;28;1208;-76
2022/05/28 01:51:02;;;;;;;;;;;19.40;67.60;;;;;;5065202;22;3748;-71
2022/05/28 01:56:12;;;;;;;;;;;19.40;67.60;;;;;;5069456;28;1143;-71
2022/05/28 01:58:37;;;;;;;;;;;19.40;67.60;;;;;;5073327;28;1110;-71
2022/05/28 02:01:03;;;;;;;;;;;19.40;67.60;;;;;;5072258;28;1199;-71
2022/05/28 02:03:31;;;;;;;;;;;19.40;67.60;;;;;;5071970;28;1083;-70
2022/05/28 02:05:56;;;;;;;;;;;19.40;67.60;;;;;;5071989;28;1068;-71
2022/05/28 02:08:22;;;;;;;;;;;19.40;67.60;;;;;;5073141;28;1133;-71
2022/05/28 02:10:49;;;;;;;;;;;19.40;67.60;;;;;;5087611;28;1967;-71
2022/05/28 02:13:21;;;;;;;;;;;19.40;67.60;;;;;;5074979;28;1174;-71
2022/05/28 02:15:53;;;;;;;;;;;19.40;67.60;;;;;;5071560;28;1139;-71
2022/05/28 02:18:42;;;;;;;;;;;19.40;67.60;;;;;;5071658;28;1091;-71
2022/05/28 02:21:09;;;;;;;;;;;19.40;67.60;;;;;;5072611;28;1316;-70
2022/05/28 02:23:36;;;;;;;;;;;19.40;67.60;;;;;;5072372;28;1443;-70
2022/05/28 02:26:15;;;;;;;;;;;19.40;67.60;;;;;;5071158;28;1107;-69
2022/05/28 02:28:40;;;;;;;;;;;19.40;67.70;;;;;;5072540;28;1118;-68
2022/05/28 02:31:25;;;;;;;;;;;19.40;67.60;;;;;;5071072;28;1299;-69
2022/05/28 02:33:50;;;;;;;;;;;19.40;67.60;;;;;;5071701;28;1103;-70
2022/05/28 02:36:16;;;;;;;;;;;19.40;67.60;;;;;;5072394;28;1607;-71
2022/05/28 02:38:41;;;;;;;;;;;19.40;67.60;;;;;;5071217;28;1164;-70
2022/05/28 02:41:07;;;;;;;;;;;19.40;67.60;;;;;;5072717;28;1284;-70
2022/05/28 02:43:33;;;;;;;;;;;19.40;67.60;;;;;;5071575;28;1099;-70
2022/05/28 02:45:58;;;;;;;;;;;19.40;67.60;;;;;;5071527;28;1098;-71
2022/05/28 02:48:24;;;;;;;;;;;19.40;67.60;;;;;;5070745;28;1162;-70
2022/05/28 02:50:49;;;;;;;;;;;19.40;67.60;;;;;;5071779;28;1959;-70
2022/05/28 02:53:15;;;;;;;;;;;19.40;67.60;;;;;;5071125;28;1278;-71
2022/05/28 02:55:40;;;;;;;;;;;19.40;67.60;;;;;;5072242;28;979;-71
2022/05/28 02:58:06;;;;;;;;;;;19.40;67.60;;;;;;5071215;28;1127;-69
2022/05/28 03:00:31;;;;;;;;;;;19.40;67.60;;;;;;5071798;28;1418;-71
2022/05/28 03:02:57;;;;;;;;;;;19.40;67.60;;;;;;5072059;28;1060;-71
2022/05/28 03:05:24;;;;;;;;;;;19.40;67.60;;;;;;5072546;28;1130;-71
2022/05/28 03:07:50;;;;;;;;;;;19.40;67.60;;;;;;5072285;28;1118;-71
2022/05/28 03:10:15;;;;;;;;;;;19.40;67.60;;;;;;5071194;28;1981;-71
2022/05/28 03:12:41;;;;;;;;;;;19.30;67.50;;;;;;5062643;28;1070;-71
2022/05/28 03:15:07;;;;;;;;;;;19.40;67.60;;;;;;5067329;28;1323;-71
2022/05/28 03:17:32;;;;;;;;;;;19.40;67.60;;;;;;5071216;28;1142;-71
2022/05/28 03:20:00;;;;;;;;;;;19.40;67.60;;;;;;5071269;28;1292;-69
2022/05/28 03:22:26;;;;;;;;;;;19.40;67.60;;;;;;5070844;28;1075;-69
2022/05/28 03:24:51;;;;;;;;;;;19.40;67.60;;;;;;5070645;28;1257;-70
2022/05/28 03:27:16;;;;;;;;;;;19.40;67.60;;;;;;5072284;28;1237;-69
2022/05/28 03:29:42;;;;;;;;;;;19.40;67.60;;;;;;5071426;28;1909;-69
2022/05/28 03:32:07;;;;;;;;;;;19.30;67.50;;;;;;5070650;28;1211;-69
2022/05/28 03:34:33;;;;;;;;;;;19.40;67.60;;;;;;5068569;28;1364;-69
2022/05/28 03:36:58;;;;;;;;;;;19.40;67.60;;;;;;5074626;28;1114;-69
2022/05/28 03:39:24;;;;;;;;;;;19.40;67.60;;;;;;5076143;28;1129;-69
2022/05/28 03:41:49;;;;;;;;;;;19.40;67.60;;;;;;5075363;28;1210;-69
2022/05/28 03:44:14;;;;;;;;;;;19.40;67.60;;;;;;5076110;28;1137;-71
2022/05/28 03:46:40;;;;;;;;;;;19.30;67.50;;;;;;5075953;28;1055;-71
2022/05/28 03:49:07;;;;;;;;;;;19.40;67.60;;;;;;5074609;28;1926;-71
2022/05/28 03:51:32;;;;;;;;;;;19.40;67.60;;;;;;5073947;28;1229;-71
2022/05/28 03:53:58;;;;;;;;;;;19.30;67.50;;;;;;5075842;28;1093;-73
2022/05/28 03:56:23;;;;;;;;;;;19.40;67.60;;;;;;5073950;28;1287;-72
2022/05/28 03:58:50;;;;;;;;;;;19.40;67.60;;;;;;5073874;28;1410;-72
2022/05/28 04:01:16;;;;;;;;;;;19.40;67.60;;;;;;5068784;28;1392;-78
2022/05/28 04:03:41;;;;;;;;;;;19.40;67.60;;;;;;5067068;28;1895;-71
2022/05/28 04:06:07;;;;;;;;;;;19.40;67.60;;;;;;5073712;28;1166;-71
2022/05/28 04:08:32;;;;;;;;;;;19.30;67.50;;;;;;5056829;28;1253;-70
2022/05/28 04:10:58;;;;;;;;;;;19.40;67.60;;;;;;5074205;28;1894;-68
2022/05/28 04:13:23;;;;;;;;;;;19.40;67.60;;;;;;5087528;28;1236;-72
2022/05/28 04:15:49;;;;;;;;;;;19.40;67.60;;;;;;5074756;28;1262;-69
2022/05/28 04:18:14;;;;;;;;;;;19.40;67.60;;;;;;5072942;28;1314;-70
2022/05/28 04:20:39;;;;;;;;;;;19.40;67.60;;;;;;5073188;28;1361;-70
2022/05/28 04:23:05;;;;;;;;;;;19.40;67.60;;;;;;5074135;28;1263;-73
2022/05/28 04:25:30;;;;;;;;;;;19.40;67.60;;;;;;5074375;28;1348;-75
2022/05/28 04:27:56;;;;;;;;;;;19.40;67.60;;;;;;5088282;28;1122;-75
2022/05/28 04:30:21;;;;;;;;;;;19.40;67.60;;;;;;5060642;28;1910;-74
2022/05/28 04:32:47;;;;;;;;;;;19.40;67.60;;;;;;5073368;28;1315;-76
2022/05/28 04:35:12;;;;;;;;;;;19.40;67.60;;;;;;5073986;28;1642;-73
2022/05/28 04:37:38;;;;;;;;;;;19.30;67.50;;;;;;5074212;28;1229;-67
2022/05/28 04:40:03;;;;;;;;;;;19.40;67.60;;;;;;5073409;28;1300;-68
2022/05/28 04:42:29;;;;;;;;;;;19.40;67.60;;;;;;5073795;28;1316;-70
2022/05/28 04:44:56;;;;;;;;;;;19.40;67.60;;;;;;5074155;28;1288;-69
2022/05/28 04:47:22;;;;;;;;;;;19.40;67.60;;;;;;5071890;28;2287;-69
2022/05/28 04:49:47;;;;;;;;;;;19.40;67.60;;;;;;5067977;28;1898;-69
2022/05/28 04:52:13;;;;;;;;;;;19.30;67.50;;;;;;5071765;28;1281;-69
2022/05/28 04:54:38;;;;;;;;;;;19.40;67.60;;;;;;5089058;28;1266;-69
2022/05/28 04:57:04;;;;;;;;;;;19.40;67.60;;;;;;5073639;28;1348;-69
2022/05/28 04:59:29;;;;;;;;;;;19.40;67.60;;;;;;5072090;28;1015;-69
2022/05/28 05:01:54;;;;;;;;;;;19.30;67.50;;;;;;5071307;28;1175;-69
2022/05/28 05:04:20;;;;;;;;;;;19.40;67.60;;;;;;5072025;28;1293;-69
2022/05/28 05:06:45;;;;;;;;;;;19.30;67.50;;;;;;5073840;28;1335;-69
2022/05/28 05:09:11;;;;;;;;;;;19.30;67.50;;;;;;5073421;28;1963;-69
2022/05/28 05:11:36;;;;;;;;;;;19.40;67.60;;;;;;5069581;28;1404;-69
2022/05/28 05:14:01;;;;;;;;;;;19.40;67.60;;;;;;5067972;28;1177;-69
2022/05/28 05:16:27;;;;;;;;;;;19.30;67.60;;;;;;5073332;28;1414;-69
2022/05/28 05:18:52;;;;;;;;;;;19.40;67.60;;;;;;5088802;28;1169;-69
2022/05/28 05:21:18;;;;;;;;;;;19.30;67.50;;;;;;5072801;28;1377;-69
2022/05/28 05:23:43;;;;;;;;;;;19.40;67.60;;;;;;5088650;28;1331;-69
2022/05/28 05:26:12;;;;;;;;;;;19.40;67.60;;;;;;5066506;28;1659;-70
2022/05/28 05:28:38;;;;;;;;;;;19.40;67.60;;;;;;5070504;28;1158;-71
2022/05/28 05:31:03;;;;;;;;;;;19.40;67.60;;;;;;5087759;28;1969;-67
2022/05/28 05:33:28;;;;;;;;;;;19.40;67.60;;;;;;5072536;28;1264;-70
2022/05/28 05:35:54;;;;;;;;;;;19.30;67.50;;;;;;5071060;28;1616;-72
2022/05/28 05:38:19;;;;;;;;;;;19.30;67.50;;;;;;5071568;28;1345;-74
2022/05/28 05:40:45;;;;;;;;;;;19.30;67.50;;;;;;5071495;28;1268;-74
2022/05/28 05:43:10;;;;;;;;;;;19.40;67.60;;;;;;5071059;28;1265;-71
2022/05/28 05:45:37;;;;;;;;;;;19.40;67.60;;;;;;5072849;28;1248;-71
2022/05/28 05:48:02;;;;;;;;;;;19.40;67.60;;;;;;5072409;28;1189;-65
2022/05/28 05:50:28;;;;;;;;;;;19.30;67.50;;;;;;5070035;28;1960;-70
2022/05/28 05:52:53;;;;;;;;;;;19.40;67.60;;;;;;5072753;28;1435;-74
2022/05/28 05:55:18;;;;;;;;;;;19.40;67.60;;;;;;5071675;28;1153;-72
2022/05/28 05:57:44;;;;;;;;;;;19.40;67.60;;;;;;5072086;28;1276;-72
2022/05/28 06:00:10;;;;;;;;;;;19.40;67.60;;;;;;5069866;28;1335;-72
2022/05/28 06:02:35;;;;;;;;;;;19.40;67.60;;;;;;5070889;28;1361;-71
2022/05/28 06:05:00;;;;;;;;;;;19.40;67.80;;;;;;5069516;28;1189;-72
2022/05/28 06:07:26;;;;;;;;;;;19.40;67.60;;;;;;5072425;28;1229;-75
2022/05/28 06:09:51;;;;;;;;;;;19.40;67.60;;;;;;5049794;28;1907;-71
2022/05/28 06:12:17;;;;;;;;;;;19.40;67.60;;;;;;5070553;28;1316;-70
2022/05/28 06:14:42;;;;;;;;;;;19.40;68.40;;;;;;5070936;28;1282;-69
2022/05/28 06:17:08;;;;;;;;;;;19.40;67.60;;;;;;5070755;28;1406;-70
2022/05/28 06:19:33;;;;;;;;;;;19.40;67.60;;;;;;5073462;28;1170;-74
2022/05/28 06:21:59;;;;;;;;;;;19.40;67.60;;;;;;5058205;28;1258;-75
2022/05/28 06:24:25;;;;;;;;;;;19.40;67.60;;;;;;5070868;28;1389;-71
2022/05/28 06:26:50;;;;;;;;;;;19.30;67.50;;;;;;5067003;28;1099;-69
2022/05/28 06:29:16;;;;;;;;;;;19.40;67.60;;;;;;5071845;28;1910;-69
2022/05/28 06:31:41;;;;;;;;;;;19.30;67.50;;;;;;5071067;28;1344;-69
2022/05/28 06:34:06;;;;;;;;;;;19.40;67.60;;;;;;5070736;28;1398;-70
2022/05/28 06:36:32;;;;;;;;;;;19.40;67.60;;;;;;5083709;28;1332;-70
2022/05/28 06:38:57;;;;;;;;;;;19.40;67.60;;;;;;5064443;28;1269;-69
2022/05/28 06:41:23;;;;;;;;;;;19.40;67.60;;;;;;5070707;28;1286;-70
2022/05/28 06:43:48;;;;;;;;;;;19.40;67.60;;;;;;5072469;28;1378;-70
2022/05/28 06:46:14;;;;;;;;;;;19.30;67.60;;;;;;5070666;28;1398;-69
2022/05/28 06:48:39;;;;;;;;;;;19.40;67.60;;;;;;5087430;28;1082;-68
2022/05/28 06:51:05;;;;;;;;;;;19.40;67.70;;;;;;5070543;28;1959;-69
2022/05/28 06:53:30;;;;;;;;;;;19.40;67.60;;;;;;5067670;28;2316;-69
2022/05/28 06:55:56;;;;;;;;;;;19.40;67.60;;;;;;5072073;28;1318;-71
2022/05/28 06:58:21;;;;;;;;;;;19.40;67.60;;;;;;5071588;28;1092;-74
2022/05/28 07:00:46;;;;;;;;;;;19.40;67.60;;;;;;5071090;28;1394;-74
2022/05/28 07:03:13;;;;;;;;;;;19.40;67.60;;;;;;5071871;28;1145;-75
2022/05/28 07:05:39;;;;;;;;;;;19.40;67.60;;;;;;5065247;28;1201;-75
2022/05/28 07:08:04;;;;;;;;;;;19.40;67.70;;;;;;5068854;28;1152;-73
2022/05/28 07:10:30;;;;;;;;;;;19.40;67.60;;;;;;5071083;28;1967;-75
2022/05/28 07:12:56;;;;;;;;;;;19.40;67.60;;;;;;5059173;28;1270;-74
2022/05/28 07:15:22;;;;;;;;;;;19.30;67.60;;;;;;5070523;28;1243;-74
2022/05/28 07:17:47;;;;;;;;;;;19.40;68.10;;;;;;5072266;28;1422;-71
2022/05/28 07:20:13;;;;;;;;;;;19.40;67.70;;;;;;5071679;28;1277;-70
2022/05/28 07:22:39;;;;;;;;;;;19.40;67.60;;;;;;5072563;28;1273;-71
2022/05/28 07:25:04;;;;;;;;;;;19.40;67.60;;;;;;5072092;28;1304;-71
2022/05/28 07:27:30;;;;;;;;;;;19.40;67.70;;;;;;5067578;28;2148;-70
2022/05/28 07:29:55;;;;;;;;;;;19.40;67.70;;;;;;5068384;28;1961;-70
2022/05/28 07:32:22;;;;;;;;;;;19.40;67.70;;;;;;5070591;28;1358;-70
2022/05/28 07:34:48;;;;;;;;;;;19.30;67.60;;;;;;5065800;28;1378;-69
2022/05/28 07:37:13;;;;;;;;;;;19.40;67.70;;;;;;5065972;28;1082;-69
2022/05/28 07:39:39;;;;;;;;;;;19.40;67.70;;;;;;5071443;28;1310;-68
2022/05/28 07:42:04;;;;;;;;;;;19.30;67.60;;;;;;5071192;28;1289;-68
2022/05/28 07:44:30;;;;;;;;;;;19.30;67.60;;;;;;5072030;28;1300;-68
2022/05/28 07:46:56;;;;;;;;;;;19.30;67.60;;;;;;5064635;28;1270;-71
2022/05/28 07:49:21;;;;;;;;;;;19.40;67.70;;;;;;5069413;28;1952;-71
2022/05/28 07:51:47;;;;;;;;;;;19.30;67.60;;;;;;5084118;22;2143;-76
2022/05/28 07:54:13;;;;;;;;;;;19.40;67.70;;;;;;5070101;28;1123;-75
2022/05/28 07:56:38;;;;;;;;;;;19.30;67.60;;;;;;5054033;28;1227;-75
2022/05/28 07:59:04;;;;;;;;;;;19.40;67.70;;;;;;5053837;28;1166;-74
2022/05/28 08:01:35;;;;;;;;;;;19.40;67.70;;;;;;5041423;28;1316;-73
2022/05/28 08:04:00;;;;;;;;;;;19.30;67.60;;;;;;5054992;28;1283;-74
2022/05/28 08:06:26;;;;;;;;;;;19.40;67.70;;;;;;5055625;28;1219;-76
2022/05/28 08:08:51;;;;;;;;;;;19.30;67.60;;;;;;5056408;28;1223;-73
2022/05/28 08:11:17;;;;;;;;;;;19.30;67.60;;;;;;5058567;28;1958;-76
2022/05/28 08:13:42;;;;;;;;;;;19.40;67.70;;;;;;5024812;28;1286;-73
2022/05/28 08:16:08;;;;;;;;;;;19.30;67.60;;;;;;5041498;28;1231;-75
2022/05/28 08:18:36;;;;;;;;;;;19.30;67.60;;;;;;5056737;28;1207;-73
2022/05/28 08:23:46;;;;;;;;;;;19.40;67.70;;;;;;5058677;28;1096;-75
2022/05/28 08:26:12;;;;;;;;;;;19.40;67.60;;;;;;5042094;28;1518;-74
2022/05/28 08:28:37;;;;;;;;;;;19.40;67.70;;;;;;5036484;28;1064;-74
2022/05/28 08:31:03;;;;;;;;;;;19.30;67.60;;;;;;5020046;28;1907;-75
2022/05/28 08:33:28;;;;;;;;;;;19.40;67.70;;;;;;5037229;28;1343;-75
2022/05/28 08:35:55;;;;;;;;;;;19.40;67.60;;;;;;5054455;28;1647;-74
2022/05/28 08:38:21;;;;;;;;;;;19.30;67.60;;;;;;5037090;28;1167;-73
2022/05/28 08:40:51;;;;;;;;;;;19.40;67.70;;;;;;5036612;28;1347;-73
2022/05/28 08:43:17;;;;;;;;;;;19.40;67.70;;;;;;5055896;28;1240;-73
2022/05/28 08:45:43;;;;;;;;;;;19.30;67.60;;;;;;5036674;28;1087;-73
2022/05/28 08:48:08;;;;;;;;;;;19.30;67.60;;;;;;5036854;28;1369;-74
2022/05/28 08:50:36;;;;;;;;;;;19.40;67.70;;;;;;5035934;28;2026;-73
2022/05/28 08:53:12;;;;;;;;;;;19.30;67.60;;;;;;5036254;28;1134;-72
2022/05/28 08:55:40;;;;;;;;;;;19.40;67.70;;;;;;5036043;28;1733;-71
2022/05/28 08:58:06;;;;;;;;;;;19.30;67.60;;;;;;5059162;28;1332;-71
2022/05/28 09:00:33;;;;;;;;;;;19.40;67.70;;;;;;5058224;28;1296;-71
2022/05/28 09:03:05;;;;;;;;;;;19.30;67.60;;;;;;5057343;28;1307;-71
2022/05/28 09:05:31;;;;;;;;;;;19.40;67.70;;;;;;5053105;28;1294;-72
2022/05/28 09:07:59;;;;;;;;;;;19.30;67.60;;;;;;5036477;28;1398;-70
2022/05/28 09:10:25;;;;;;;;;;;19.40;67.70;;;;;;5053248;28;1918;-71
2022/05/28 09:12:51;;;;;;;;;;;19.40;67.70;;;;;;5054283;28;1241;-72
2022/05/28 09:15:16;;;;;;;;;;;19.30;67.70;;;;;;5036410;28;1315;-73
2022/05/28 09:17:43;;;;;;;;;;;19.40;67.70;;;;;;5035982;28;1259;-70
2022/05/28 09:20:20;;;;;;;;;;;19.40;67.80;;;;;;5052351;28;1119;-72
2022/05/28 09:22:46;;;;;;;;;;;19.40;67.70;;;;;;5036134;28;1273;-71
2022/05/28 09:25:11;;;;;;;;;;;19.40;67.80;;;;;;5036229;28;1366;-72
2022/05/28 09:27:55;;;;;;;;;;;19.40;67.70;;;;;;5054061;28;1269;-71
2022/05/28 09:30:31;;;;;;;;;;;19.40;67.70;;;;;;5039440;28;1906;-71
2022/05/28 09:33:12;;;;;;;;;;;19.40;67.70;;;;;;5035898;28;1319;-71
2022/05/28 09:35:37;;;;;;;;;;;19.40;67.70;;;;;;5036288;28;1527;-71
2022/05/28 09:38:04;;;;;;;;;;;19.40;67.70;;;;;;5052584;28;1488;-72
2022/05/28 09:40:48;;;;;;;;;;;19.40;67.70;;;;;;5034387;28;1257;-71
2022/05/28 09:43:20;;;;;;;;;;;19.30;67.60;;;;;;5054206;28;1071;-71
2022/05/28 09:45:45;;;;;;;;;;;19.40;67.50;;;;;;5053536;28;1257;-71
2022/05/28 09:48:17;;;;;;;;;;;19.40;67.50;;;;;;5053567;28;1083;-72
2022/05/28 09:50:43;;;;;;;;;;;19.40;67.50;;;;;;5035028;28;1951;-71
2022/05/28 09:55:54;;;;;;;;;;;19.40;67.60;;;;;;5038516;28;1386;-71
2022/05/28 09:58:21;;;;;;;;;;;19.40;67.50;;;;;;5035397;28;1355;-71
2022/05/28 10:00:47;;;;;;;;;;;19.40;67.60;;;;;;5034637;28;1347;-72
2022/05/28 10:05:57;;;;;;;;;;;19.40;67.50;;;;;;5059470;28;1082;-72
2022/05/28 10:08:29;;;;;;;;;;;19.40;67.50;;;;;;5041973;28;1279;-72
2022/05/28 10:10:55;;;;;;;;;;;19.40;67.40;;;;;;5047121;28;2046;-73
2022/05/28 10:13:23;;;;;;;;;;;19.40;67.40;;;;;;5042347;28;1172;-72
2022/05/28 10:15:53;;;;;;;;;;;19.40;67.50;;;;;;5029659;28;1161;-71
2022/05/28 10:18:28;;;;;;;;;;;19.40;67.50;;;;;;5053080;28;1362;-72
2022/05/28 10:20:57;;;;;;;;;;;19.40;67.50;;;;;;5034891;28;1386;-72
2022/05/28 10:23:23;;;;;;;;;;;19.40;67.50;;;;;;5035102;28;1357;-72
2022/05/28 10:25:50;;;;;;;;;;;19.40;67.50;;;;;;5053027;28;1063;-72
2022/05/28 10:28:29;;;;;;;;;;;19.40;67.50;;;;;;5035474;28;1366;-72
2022/05/28 10:30:55;;;;;;;;;;;19.40;67.50;;;;;;5052449;28;1910;-71
2022/05/28 10:33:21;;;;;;;;;;;19.40;67.50;;;;;;5035140;28;1398;-72
2022/05/28 10:35:46;;;;;;;;;;;19.40;67.50;;;;;;5034486;28;1646;-73
2022/05/28 10:38:22;;;;;;;;;;;19.40;67.50;;;;;;5051522;28;1980;-71
2022/05/28 10:40:51;;;;;;;;;;;19.40;67.50;;;;;;5049722;28;1791;-73
2022/05/28 10:43:20;;;;;;;;;;;19.40;68.20;;;;;;5055841;28;1793;-71
2022/05/28 10:45:46;;;;;;;;;;;19.40;68.50;;;;;;5040641;28;1193;-71
2022/05/28 10:48:24;;;;;;;;;;;19.50;68.70;;;;;;5026945;28;1232;-71
2022/05/28 10:51:02;;;;;;;;;;;19.50;68.80;;;;;;5057379;28;1898;-71
2022/05/28 10:53:35;;;;;;;;;;;19.60;68.90;;;;;;5042532;28;1604;-72
2022/05/28 10:56:13;;;;;;;;;;;19.60;68.90;;;;;;5060352;28;1300;-71
2022/05/28 10:58:54;;;;;;;;;;;19.60;68.80;;;;;;5043817;28;1172;-71
2022/05/28 11:01:25;;;;;;;;;;;19.70;68.90;;;;;;5055353;28;1306;-72
2022/05/28 11:04:09;;;;;;;;;;;19.70;68.80;;;;;;5043209;28;1219;-72
2022/05/28 11:06:41;;;;;;;;;;;19.70;68.70;;;;;;5042728;28;1275;-72
2022/05/28 11:09:08;;;;;;;;;;;19.70;68.70;;;;;;5043077;28;1887;-72
2022/05/28 11:11:43;;;;;;;;;;;19.80;68.70;;;;;;5026240;28;1348;-72
2022/05/28 11:14:27;;;;;;;;;;;19.80;69.10;;;;;;5043889;28;1882;-72
2022/05/28 11:16:53;;;;;;;;;;;19.80;69.20;;;;;;5047943;28;2079;-72
2022/05/28 11:19:25;;;;;;;;;;;19.80;68.70;;;;;;5050027;28;1202;-73
2022/05/28 11:21:57;;;;;;;;;;;19.80;68.50;;;;;;5034370;28;1265;-72
2022/05/28 11:24:28;;;;;;;;;;;19.80;68.40;;;;;;5033522;28;1122;-72
2022/05/28 11:27:00;;;;;;;;;;;19.70;68.40;;;;;;5044041;28;1307;-72
2022/05/28 11:29:41;;;;;;;;;;;19.70;68.40;;;;;;5036119;28;1898;-72
2022/05/28 11:32:13;;;;;;;;;;;19.70;68.50;;;;;;5022409;28;1335;-72
2022/05/28 11:34:43;;;;;;;;;;;19.60;68.50;;;;;;5051535;28;1472;-71
2022/05/28 11:37:13;;;;;;;;;;;19.60;68.60;;;;;;5033424;28;1303;-73
2022/05/28 11:39:41;;;;;;;;;;;19.60;68.60;;;;;;5049695;28;1251;-73
2022/05/28 11:42:14;;;;;;;;;;;19.60;68.60;;;;;;5051038;28;1287;-72
2022/05/28 11:44:58;;;;;;;;;;;19.60;68.60;;;;;;5033349;28;1246;-72
2022/05/28 11:47:42;;;;;;;;;;;19.60;68.50;;;;;;5033092;28;1215;-73
2022/05/28 11:53:04;;;;;;;;;;;19.50;68.50;;;;;;5037381;28;1114;-73
2022/05/28 11:55:30;;;;;;;;;;;19.50;68.40;;;;;;5050860;28;1168;-73
2022/05/28 11:58:02;;;;;;;;;;;19.50;68.40;;;;;;5035918;28;1165;-74
2022/05/28 12:00:29;;;;;;;;;;;19.50;68.40;;;;;;5054222;28;1239;-73
2022/05/28 12:02:56;;;;;;;;;;;19.50;68.40;;;;;;5037001;28;1340;-73
2022/05/28 12:05:25;;;;;;;;;;;19.50;68.40;;;;;;5030219;28;2025;-73
2022/05/28 12:07:53;;;;;;;;;;;19.50;68.40;;;;;;5041732;28;1130;-73
2022/05/28 12:10:38;;;;;;;;;;;19.50;68.40;;;;;;5038857;28;1981;-71
2022/05/28 12:13:03;;;;;;;;;;;19.50;68.40;;;;;;5052883;28;1196;-73
2022/05/28 12:15:30;;;;;;;;;;;19.50;68.30;;;;;;5018703;28;1861;-73
2022/05/28 12:18:13;;;;;;;;;;;19.50;68.30;;;;;;5053261;28;1106;-73
2022/05/28 12:21:08;;;;;;;;;;;19.40;68.30;;;;;;5052211;28;1435;-72
2022/05/28 12:23:35;;;;;;;;;;;19.40;68.30;;;;;;5019277;28;1601;-73
2022/05/28 12:26:05;;;;;;;;;;;19.40;68.30;;;;;;5037548;28;1065;-73
2022/05/28 12:28:42;;;;;;;;;;;19.40;68.30;;;;;;5036363;28;878;-72
2022/05/28 12:31:08;;;;;;;;;;;19.40;68.30;;;;;;5035862;28;1906;-73
2022/05/28 12:33:34;;;;;;;;;;;19.40;68.30;;;;;;5020068;28;1295;-73
2022/05/28 12:36:09;;;;;;;;;;;19.40;68.30;;;;;;5036594;28;1661;-73
2022/05/28 12:38:39;;;;;;;;;;;19.40;68.20;;;;;;5053685;28;1241;-72
2022/05/28 12:41:05;;;;;;;;;;;19.40;68.30;;;;;;5035710;28;1249;-73
2022/05/28 12:43:34;;;;;;;;;;;19.40;68.30;;;;;;5043882;28;1199;-73
2022/05/28 12:46:19;;;;;;;;;;;19.40;68.30;;;;;;5036618;28;1253;-74
2022/05/28 12:48:44;;;;;;;;;;;19.40;68.30;;;;;;5054437;28;1103;-74
2022/05/28 12:51:24;;;;;;;;;;;19.40;68.20;;;;;;5035288;28;2021;-74
2022/05/28 12:53:54;;;;;;;;;;;19.40;68.20;;;;;;5033425;28;2258;-72
2022/05/28 12:56:35;;;;;;;;;;;19.40;68.20;;;;;;5052680;28;1127;-73
2022/05/28 12:59:08;;;;;;;;;;;19.40;68.20;;;;;;5051170;28;1870;-74
2022/05/28 13:01:33;;;;;;;;;;;19.40;68.20;;;;;;5035211;28;2002;-74
2022/05/28 13:03:58;;;;;;;;;;;19.40;68.20;;;;;;5018819;28;1084;-72
2022/05/28 13:06:44;;;;;;;;;;;19.40;68.20;;;;;;5049961;28;1086;-74
2022/05/28 13:09:11;;;;;;;;;;;19.40;68.20;;;;;;5026313;28;1913;-73
2022/05/28 13:11:37;;;;;;;;;;;19.40;68.20;;;;;;5030408;28;1560;-74
2022/05/28 13:14:15;;;;;;;;;;;19.40;68.30;;;;;;5034957;28;1386;-73
2022/05/28 13:16:55;;;;;;;;;;;19.40;68.30;;;;;;5053859;28;1271;-74
2022/05/28 13:19:39;;;;;;;;;;;19.40;68.20;;;;;;5050896;28;1098;-74
2022/05/28 13:22:10;;;;;;;;;;;19.40;68.20;;;;;;5046317;28;2196;-74
2022/05/28 13:24:39;;;;;;;;;;;19.40;68.30;;;;;;5026158;28;1536;-74
2022/05/28 13:27:04;;;;;;;;;;;19.40;68.20;;;;;;5039493;28;1549;-74
2022/05/28 13:29:36;;;;;;;;;;;19.40;68.30;;;;;;5047125;28;1906;-73
2022/05/28 13:32:09;;;;;;;;;;;19.40;68.20;;;;;;5051969;28;1582;-74
2022/05/28 13:34:35;;;;;;;;;;;19.40;69.00;;;;;;5034463;28;1682;-74
2022/05/28 13:37:00;;;;;;;;;;;19.40;68.20;;;;;;5034327;28;1415;-74
2022/05/28 13:39:25;;;;;;;;;;;19.40;68.20;;;;;;5031607;28;2063;-74
2022/05/28 13:41:51;;;;;;;;;;;19.40;68.30;;;;;;5026867;28;1292;-74
2022/05/28 13:44:18;;;;;;;;;;;19.40;68.20;;;;;;5042117;28;1118;-75
2022/05/28 13:46:54;;;;;;;;;;;19.40;68.20;;;;;;5035107;28;1976;-74
2022/05/28 13:49:20;;;;;;;;;;;19.40;68.20;;;;;;5035591;28;1902;-73
2022/05/28 13:51:46;;;;;;;;;;;19.40;68.30;;;;;;5032941;28;1373;-74
2022/05/28 13:54:12;;;;;;;;;;;19.40;68.20;;;;;;5047235;28;1075;-75
2022/05/28 13:56:37;;;;;;;;;;;19.40;68.20;;;;;;5014630;28;1438;-74
2022/05/28 13:59:04;;;;;;;;;;;19.40;68.20;;;;;;5074099;22;3500;-71
2022/05/28 14:01:36;;;;;;;;;;;19.40;68.30;;;;;;5064502;28;1258;-71
2022/05/28 14:04:08;;;;;;;;;;;19.40;68.20;;;;;;5045659;28;1264;-71
2022/05/28 14:06:34;;;;;;;;;;;19.40;68.20;;;;;;5063575;28;1290;-71
2022/05/28 14:09:02;;;;;;;;;;;19.40;68.30;;;;;;5081811;28;1383;-71
2022/05/28 14:11:33;;;;;;;;;;;19.40;68.20;;;;;;5036032;28;1991;-71
2022/05/28 14:14:03;;;;;;;;;;;19.40;68.20;;;;;;5054262;28;1282;-71
2022/05/28 14:16:35;;;;;;;;;;;19.40;68.20;;;;;;5051433;28;1985;-71
2022/05/28 14:19:01;;;;;;;;;;;19.40;68.20;;;;;;5055624;28;2035;-71
2022/05/28 14:21:30;;;;;;;;;;;19.40;68.20;;;;;;5050772;28;1907;-72
2022/05/28 14:23:56;;;;;;;;;;;19.40;68.20;;;;;;5051828;28;1466;-71
2022/05/28 14:26:21;;;;;;;;;;;19.40;68.20;;;;;;5070463;28;1243;-71
2022/05/28 14:28:47;;;;;;;;;;;19.40;68.20;;;;;;5071446;28;1266;-72
2022/05/28 14:31:13;;;;;;;;;;;19.40;68.20;;;;;;5070714;28;1906;-70
2022/05/28 14:33:38;;;;;;;;;;;19.40;68.20;;;;;;5067593;28;1059;-71
2022/05/28 14:36:05;;;;;;;;;;;19.40;68.20;;;;;;5071642;28;1584;-71
2022/05/28 14:38:31;;;;;;;;;;;19.40;68.20;;;;;;5022646;28;1649;-70
2022/05/28 14:40:57;;;;;;;;;;;19.40;68.20;;;;;;5065021;28;1337;-71
2022/05/28 14:43:27;;;;;;;;;;;19.40;68.20;;;;;;5070747;28;1154;-69
2022/05/28 14:46:22;;;;;;;;;;;19.40;68.20;;;;;;5053001;28;1055;-70
2022/05/28 14:48:54;;;;;;;;;;;19.40;68.20;;;;;;5053418;28;1267;-71